createdAt,value
2023-05-16T00:02:49.092Z,2.13
2023-05-16T00:05:50.492Z,2.30
2023-05-16T00:08:51.778Z,2.50
2023-05-16T00:11:53.080Z,3.17
2023-05-16T00:14:54.411Z,2.30
2023-05-16T00:17:55.734Z,2.35
2023-05-16T00:20:57.166Z,3.10
2023-05-16T00:23:58.482Z,3.05
2023-05-16T00:26:59.777Z,2.13
2023-05-16T00:30:01.104Z,1.98
2023-05-16T00:33:02.433Z,2.65
2023-05-16T00:36:03.806Z,2.72
2023-05-16T00:39:05.103Z,2.95
2023-05-16T00:42:06.406Z,3.97
2023-05-16T00:45:07.742Z,2.22
2023-05-16T00:48:09.094Z,2.67
2023-05-16T00:51:10.634Z,2.33
2023-05-16T00:54:11.920Z,2.10
2023-05-16T00:57:13.226Z,2.33
2023-05-16T01:00:14.529Z,2.47
2023-05-16T01:03:16.029Z,2.15
2023-05-16T01:06:17.415Z,2.10
2023-05-16T01:09:18.720Z,1.98
2023-05-16T01:12:19.995Z,2.47
2023-05-16T01:15:21.287Z,2.65
2023-05-16T01:18:22.587Z,2.28
2023-05-16T01:21:23.877Z,2.80
2023-05-16T01:24:25.177Z,1.77
2023-05-16T01:27:26.474Z,2.47
2023-05-16T01:30:27.780Z,3.45
2023-05-16T01:33:29.081Z,2.42
2023-05-16T01:36:30.369Z,2.80
2023-05-16T01:39:31.658Z,2.63
2023-05-16T01:42:32.993Z,2.63
2023-05-16T01:45:34.321Z,2.00
2023-05-16T01:48:35.630Z,3.90
2023-05-16T01:51:36.927Z,3.47
2023-05-16T01:54:38.246Z,3.70
2023-05-16T01:57:39.558Z,2.23
2023-05-16T02:00:40.920Z,3.53
2023-05-16T02:03:42.475Z,2.30
2023-05-16T02:06:43.836Z,2.97
2023-05-16T02:09:45.121Z,2.25
2023-05-16T02:12:46.439Z,1.97
2023-05-16T02:15:47.744Z,2.92
2023-05-16T02:18:49.112Z,2.80
2023-05-16T02:21:50.405Z,2.22
2023-05-16T02:24:51.717Z,2.63
2023-05-16T02:27:53.023Z,2.77
2023-05-16T02:30:54.401Z,1.98
2023-05-16T02:33:55.725Z,3.25
2023-05-16T02:36:57.041Z,2.05
2023-05-16T02:39:58.379Z,2.53
2023-05-16T02:42:59.667Z,1.93
2023-05-16T02:46:01.020Z,1.70
2023-05-16T02:49:02.320Z,2.20
2023-05-16T02:52:03.634Z,2.58
2023-05-16T02:55:21.096Z,1.98
2023-05-16T02:58:23.251Z,2.33
2023-05-16T03:01:24.612Z,3.03
2023-05-16T03:04:25.944Z,2.00
2023-05-16T03:07:27.279Z,2.25
2023-05-16T03:10:28.601Z,2.05
2023-05-16T03:13:29.913Z,3.90
2023-05-16T03:16:31.250Z,1.95
2023-05-16T03:19:32.559Z,1.88
2023-05-16T03:22:33.869Z,2.20
2023-05-16T03:25:35.173Z,2.15
2023-05-16T03:28:36.498Z,3.00
2023-05-16T03:31:37.861Z,3.97
2023-05-16T03:34:39.190Z,3.42
2023-05-16T03:37:40.496Z,2.15
2023-05-16T03:40:41.847Z,4.60
2023-05-16T03:43:43.183Z,1.80
2023-05-16T03:46:44.497Z,2.25
2023-05-16T03:49:45.794Z,2.28
2023-05-16T03:52:47.111Z,1.98
2023-05-16T03:55:49.039Z,2.55
2023-05-16T03:58:50.509Z,1.80
2023-05-16T04:01:51.871Z,3.95
2023-05-16T04:04:53.296Z,1.75
2023-05-16T04:07:54.601Z,1.90
2023-05-16T04:10:55.906Z,2.38
2023-05-16T04:13:57.229Z,1.70
2023-05-16T04:16:58.592Z,3.90
2023-05-16T04:19:59.898Z,1.90
2023-05-16T04:23:01.201Z,3.35
2023-05-16T04:26:02.495Z,4.07
2023-05-16T04:29:03.801Z,2.23
2023-05-16T04:32:05.239Z,2.25
2023-05-16T04:35:06.620Z,3.42
2023-05-16T04:38:07.901Z,2.55
2023-05-16T04:41:09.219Z,2.15
2023-05-16T04:44:10.522Z,2.57
2023-05-16T04:47:11.824Z,1.83
2023-05-16T04:50:13.129Z,1.88
2023-05-16T04:53:14.450Z,2.05
2023-05-16T04:56:15.740Z,2.30
2023-05-16T04:59:17.047Z,2.20
2023-05-16T05:02:18.348Z,2.25
2023-05-16T05:05:19.748Z,2.53
2023-05-16T05:08:21.073Z,3.53
2023-05-16T05:11:22.369Z,2.47
2023-05-16T05:14:23.720Z,3.47
2023-05-16T05:17:25.108Z,32.70
2023-05-16T05:20:26.462Z,94.68
2023-05-16T05:23:27.774Z,53.67
2023-05-16T05:26:29.092Z,44.95
2023-05-16T05:29:30.403Z,14.80
2023-05-16T05:32:31.795Z,17.15
2023-05-16T05:35:33.124Z,14.60
2023-05-16T05:38:34.431Z,10.50
2023-05-16T05:41:35.767Z,14.00
2023-05-16T05:44:37.062Z,7.37
2023-05-16T05:47:38.391Z,8.88
2023-05-16T05:50:39.720Z,17.23
2023-05-16T05:53:41.025Z,17.88
2023-05-16T05:56:42.360Z,17.67
2023-05-16T05:59:43.654Z,20.60
2023-05-16T06:02:45.091Z,19.55
2023-05-16T06:05:46.648Z,18.30
2023-05-16T06:08:48.035Z,15.48
2023-05-16T06:11:49.544Z,8.35
2023-05-16T06:14:50.840Z,14.33
2023-05-16T06:17:52.185Z,9.95
2023-05-16T06:20:53.506Z,13.73
2023-05-16T06:23:54.834Z,18.20
2023-05-16T06:26:59.153Z,13.05
2023-05-16T06:30:00.467Z,10.23
2023-05-16T06:33:01.804Z,14.93
2023-05-16T06:36:03.178Z,10.30
2023-05-16T06:39:04.493Z,16.83
2023-05-16T06:42:07.021Z,11.95
2023-05-16T06:45:08.910Z,9.40
2023-05-16T06:48:13.501Z,13.73
2023-05-16T06:54:30.188Z,14.48
2023-05-16T06:57:31.525Z,17.00
2023-05-16T07:00:32.876Z,5.27
2023-05-16T07:03:34.362Z,16.75
2023-05-16T07:06:36.004Z,12.98
2023-05-16T07:09:37.351Z,8.30
2023-05-16T07:12:38.693Z,8.73
2023-05-16T07:15:40.033Z,12.20
2023-05-16T07:18:41.414Z,8.07
2023-05-16T07:21:42.823Z,7.57
2023-05-16T07:24:44.171Z,19.98
2023-05-16T07:27:45.587Z,9.85
2023-05-16T07:30:46.947Z,12.20
2023-05-16T07:33:48.299Z,7.97
2023-05-16T07:36:49.741Z,6.60
2023-05-16T07:39:51.091Z,6.88
2023-05-16T07:42:52.465Z,5.22
2023-05-16T07:45:53.834Z,8.67
2023-05-16T07:48:55.205Z,8.60
2023-05-16T07:51:56.541Z,13.55
2023-05-16T07:54:57.898Z,15.65
2023-05-16T07:57:59.223Z,23.42
2023-05-16T08:01:00.612Z,26.97
2023-05-16T08:04:02.029Z,19.17
2023-05-16T08:07:03.396Z,15.68
2023-05-16T08:10:04.843Z,13.52
2023-05-16T08:13:06.239Z,17.00
2023-05-16T08:16:07.642Z,18.47
2023-05-16T08:19:09.065Z,13.88
2023-05-16T08:22:10.460Z,14.43
2023-05-16T08:25:11.805Z,8.65
2023-05-16T08:28:13.178Z,13.93
2023-05-16T08:31:14.546Z,23.47
2023-05-16T08:34:16.091Z,10.82
2023-05-16T08:37:17.573Z,10.98
2023-05-16T08:40:18.987Z,11.27
2023-05-16T08:43:20.347Z,12.55
2023-05-16T08:46:21.739Z,12.43
2023-05-16T08:49:23.093Z,25.83
2023-05-16T08:52:24.454Z,52.15
2023-05-16T08:55:25.962Z,32.45
2023-05-16T08:58:27.457Z,39.10
2023-05-16T09:01:28.879Z,21.30
2023-05-16T09:04:30.321Z,20.73
2023-05-16T09:07:31.733Z,22.13
2023-05-16T09:10:33.089Z,10.07
2023-05-16T09:13:34.428Z,22.58
2023-05-16T09:16:35.917Z,11.30
2023-05-16T09:19:37.465Z,21.83
2023-05-16T09:22:38.974Z,10.18
2023-05-16T09:25:40.481Z,15.80
2023-05-16T09:28:41.840Z,9.98
2023-05-16T09:31:43.342Z,11.73
2023-05-16T09:34:44.768Z,9.95
2023-05-16T09:37:46.214Z,23.50
2023-05-16T09:40:47.625Z,18.13
2023-05-16T09:43:49.060Z,11.35
2023-05-16T09:46:50.533Z,10.03
2023-05-16T09:49:51.938Z,8.45
2023-05-16T09:52:53.287Z,9.60
2023-05-16T09:55:54.647Z,9.00
2023-05-16T09:58:56.063Z,10.10
2023-05-16T10:01:57.525Z,12.40
2023-05-16T10:04:58.944Z,41.60
2023-05-16T10:08:00.300Z,17.95
2023-05-16T10:11:01.649Z,14.80
2023-05-16T10:14:03.022Z,20.95
2023-05-16T10:17:04.360Z,13.27
2023-05-16T10:20:05.726Z,12.63
2023-05-16T10:23:07.056Z,10.77
2023-05-16T10:26:08.403Z,8.45
2023-05-16T10:29:09.784Z,12.77
2023-05-16T10:32:11.219Z,14.03
2023-05-16T10:35:12.600Z,8.40
2023-05-16T10:38:14.002Z,29.30
2023-05-16T10:41:15.339Z,18.13
2023-05-16T10:44:16.692Z,18.75
2023-05-16T10:47:18.073Z,9.80
2023-05-16T10:50:19.422Z,10.65
2023-05-16T10:53:22.600Z,15.13
2023-05-16T10:56:23.986Z,9.38
2023-05-16T10:59:25.410Z,8.70
2023-05-16T11:02:26.888Z,17.80
2023-05-16T11:05:28.594Z,11.32
2023-05-16T11:08:30.109Z,10.65
2023-05-16T11:11:31.430Z,10.43
2023-05-16T11:14:33.005Z,10.20
2023-05-16T11:17:34.516Z,14.13
2023-05-16T11:20:35.903Z,19.42
2023-05-16T11:23:37.263Z,20.63
2023-05-16T11:26:38.631Z,24.58
2023-05-16T11:29:40.018Z,27.75
2023-05-16T11:32:41.495Z,20.37
2023-05-16T11:35:42.896Z,15.75
2023-05-16T11:38:44.333Z,14.90
2023-05-16T11:41:47.240Z,19.83
2023-05-16T11:44:50.169Z,10.70
2023-05-16T11:47:51.553Z,10.10
2023-05-16T11:50:52.989Z,10.63
2023-05-16T11:53:54.364Z,7.65
2023-05-16T11:56:55.713Z,14.30
2023-05-16T11:59:57.079Z,13.07
2023-05-16T12:02:58.476Z,11.60
2023-05-16T12:05:59.970Z,13.60
2023-05-16T12:09:01.302Z,7.70
2023-05-16T12:12:03.145Z,7.70
2023-05-16T12:15:04.484Z,13.75
2023-05-16T12:18:05.860Z,20.13
2023-05-16T12:21:07.741Z,11.63
2023-05-16T12:24:09.143Z,7.50
2023-05-16T12:27:10.525Z,7.93
2023-05-16T12:30:11.908Z,8.75
2023-05-16T12:33:13.364Z,13.53
2023-05-16T12:36:14.769Z,14.30
2023-05-16T12:39:16.121Z,7.25
2023-05-16T12:42:17.528Z,6.95
2023-05-16T12:45:18.897Z,7.47
2023-05-16T12:48:20.290Z,8.43
2023-05-16T12:51:21.651Z,24.33
2023-05-16T12:54:23.210Z,13.75
2023-05-16T12:57:24.740Z,11.43
2023-05-16T13:00:26.146Z,9.82
2023-05-16T13:03:27.729Z,9.17
2023-05-16T13:06:32.646Z,11.88
2023-05-16T13:09:41.385Z,13.23
2023-05-16T13:12:42.750Z,10.52
2023-05-16T13:15:44.176Z,7.07
2023-05-16T13:18:45.608Z,13.67
2023-05-16T13:21:46.961Z,8.25
2023-05-16T13:24:48.363Z,7.53
2023-05-16T13:27:49.721Z,13.23
2023-05-16T13:30:51.081Z,7.15
2023-05-16T13:33:52.512Z,7.87
2023-05-16T13:36:54.964Z,22.08
2023-05-16T13:39:56.492Z,31.08
2023-05-16T13:42:57.861Z,29.02
2023-05-16T13:45:59.227Z,38.35
2023-05-16T13:49:02.023Z,21.93
2023-05-16T13:52:06.814Z,15.85
2023-05-16T13:55:08.468Z,18.50
2023-05-16T13:58:09.903Z,12.98
2023-05-16T14:01:11.800Z,22.23
2023-05-16T14:04:13.367Z,24.33
2023-05-16T14:07:14.740Z,20.33
2023-05-16T14:10:16.109Z,13.57
2023-05-16T14:13:17.458Z,13.13
2023-05-16T14:16:18.889Z,14.35
2023-05-16T14:19:20.275Z,23.63
2023-05-16T14:22:21.637Z,19.90
2023-05-16T14:25:22.999Z,17.88
2023-05-16T14:28:24.338Z,11.45
2023-05-16T14:31:25.726Z,9.45
2023-05-16T14:34:27.078Z,12.53
2023-05-16T14:37:28.428Z,13.63
2023-05-16T14:40:32.257Z,13.68
2023-05-16T14:43:33.601Z,10.93
2023-05-16T14:46:34.991Z,6.28
2023-05-16T14:49:36.369Z,10.23
2023-05-16T14:52:37.712Z,10.77
2023-05-16T14:55:39.078Z,16.33
2023-05-16T14:58:40.428Z,9.45
2023-05-16T15:01:41.821Z,6.57
2023-05-16T15:04:43.269Z,7.77
2023-05-16T15:07:44.682Z,38.70
2023-05-16T15:10:46.031Z,29.85
2023-05-16T15:13:47.388Z,32.65
2023-05-16T15:16:48.825Z,29.08
2023-05-16T15:19:50.200Z,14.93
2023-05-16T15:22:51.624Z,13.32
2023-05-16T15:25:52.997Z,16.50
2023-05-16T15:28:54.344Z,15.52
2023-05-16T15:31:55.717Z,14.48
2023-05-16T15:34:57.137Z,11.37
2023-05-16T15:37:58.498Z,13.18
2023-05-16T15:41:16.435Z,12.70
2023-05-16T15:44:21.161Z,11.15
2023-05-16T15:47:22.508Z,11.65
2023-05-16T15:50:23.866Z,9.53
2023-05-16T15:53:25.196Z,10.13
2023-05-16T15:56:26.550Z,9.07
2023-05-16T15:59:27.893Z,7.15
2023-05-16T16:02:29.305Z,10.25
2023-05-16T16:05:30.788Z,9.63
2023-05-16T16:08:33.217Z,8.80
2023-05-16T16:11:34.592Z,8.20
2023-05-16T16:14:36.251Z,6.78
2023-05-16T16:17:37.682Z,13.20
2023-05-16T16:20:39.390Z,8.13
2023-05-16T16:23:40.775Z,10.98
2023-05-16T16:26:42.170Z,7.57
2023-05-16T16:29:43.520Z,8.77
2023-05-16T16:32:44.922Z,6.40
2023-05-16T16:35:46.274Z,5.70
2023-05-16T16:38:47.702Z,8.13
2023-05-16T16:41:49.029Z,14.18
2023-05-16T16:44:50.412Z,9.25
2023-05-16T16:47:51.776Z,6.05
2023-05-16T16:50:53.176Z,5.77
2023-05-16T16:53:54.543Z,6.70
2023-05-16T16:56:56.417Z,8.65
2023-05-16T16:59:57.913Z,4.93
2023-05-16T17:02:59.358Z,10.30
2023-05-16T17:06:00.788Z,7.57
2023-05-16T17:09:02.139Z,7.15
2023-05-16T17:12:03.619Z,7.70
2023-05-16T17:15:04.974Z,8.45
2023-05-16T17:18:06.366Z,11.23
2023-05-16T17:21:07.748Z,8.30
2023-05-16T17:24:09.121Z,9.27
2023-05-16T17:27:10.504Z,7.57
2023-05-16T17:30:11.835Z,8.82
2023-05-16T17:33:13.314Z,7.50
2023-05-16T17:36:14.714Z,11.80
2023-05-16T17:39:16.448Z,9.75
2023-05-16T17:42:17.867Z,6.22
2023-05-16T17:45:19.220Z,6.25
2023-05-16T17:48:20.846Z,5.95
2023-05-16T17:51:22.855Z,7.13
2023-05-16T17:54:24.247Z,7.90
2023-05-16T17:57:25.830Z,4.40
2023-05-16T18:00:27.643Z,9.35
2023-05-16T18:03:29.118Z,6.35
2023-05-16T18:06:30.835Z,5.17
2023-05-16T18:09:32.555Z,4.60
2023-05-16T18:12:33.934Z,4.88
2023-05-16T18:15:35.290Z,4.18
2023-05-16T18:18:36.889Z,5.45
2023-05-16T18:21:38.337Z,6.77
2023-05-16T18:24:40.107Z,6.25
2023-05-16T18:27:41.849Z,4.90
2023-05-16T18:30:43.633Z,3.72
2023-05-16T18:33:45.082Z,4.78
2023-05-16T18:36:49.518Z,5.20
2023-05-16T18:39:51.240Z,6.32
2023-05-16T18:42:52.640Z,4.53
2023-05-16T18:45:54.408Z,5.18
2023-05-16T18:48:56.276Z,5.18
2023-05-16T18:51:57.715Z,3.30
2023-05-16T18:54:59.462Z,3.72
2023-05-16T18:58:01.094Z,4.32
2023-05-16T19:01:02.918Z,4.50
2023-05-16T19:04:04.440Z,7.47
2023-05-16T19:07:07.836Z,3.63
2023-05-16T19:10:10.998Z,3.65
2023-05-16T19:13:12.545Z,4.97
2023-05-16T19:16:14.040Z,3.13
2023-05-16T19:19:15.893Z,3.97
2023-05-16T19:22:17.717Z,3.50
2023-05-16T19:25:19.109Z,4.90
2023-05-16T19:28:20.495Z,3.08
2023-05-16T19:31:22.298Z,3.15
2023-05-16T19:34:24.620Z,4.10
2023-05-16T19:37:26.024Z,4.07
2023-05-16T19:40:27.761Z,5.07
2023-05-16T19:43:29.193Z,4.30
2023-05-16T19:46:31.755Z,4.65
2023-05-16T19:49:33.091Z,4.85
2023-05-16T19:52:34.454Z,3.80
2023-05-16T19:55:36.532Z,3.72
2023-05-16T19:58:39.089Z,3.83
2023-05-16T20:04:42.752Z,3.65
2023-05-16T20:07:44.118Z,4.93
2023-05-16T20:10:45.661Z,3.88
2023-05-16T20:13:47.000Z,3.28
2023-05-16T20:16:48.351Z,3.33
2023-05-16T20:19:49.742Z,5.18
2023-05-16T20:22:51.097Z,3.90
2023-05-16T20:25:52.621Z,4.10
2023-05-16T20:28:53.998Z,3.08
2023-05-16T20:31:55.347Z,3.72
2023-05-16T20:34:56.696Z,3.88
2023-05-16T20:37:58.058Z,2.97
2023-05-16T20:40:59.497Z,3.15
2023-05-16T20:44:00.851Z,3.13
2023-05-16T20:47:02.193Z,3.50
2023-05-16T20:50:03.570Z,3.85
2023-05-16T20:53:04.898Z,4.00
2023-05-16T20:56:06.259Z,2.60
2023-05-16T20:59:07.626Z,2.65
2023-05-16T21:02:08.973Z,4.38
2023-05-16T21:05:23.995Z,4.07
2023-05-16T21:08:26.709Z,3.20
2023-05-16T21:11:28.076Z,3.08
2023-05-16T21:14:29.415Z,3.72
2023-05-16T21:17:30.834Z,3.63
2023-05-16T21:20:32.231Z,3.78
2023-05-16T21:23:33.592Z,2.90
2023-05-16T21:26:34.909Z,3.42
2023-05-16T21:29:36.255Z,3.65
2023-05-16T21:32:37.668Z,2.67
2023-05-16T21:35:39.068Z,3.72
2023-05-16T21:38:40.419Z,3.67
2023-05-16T21:41:41.751Z,3.17
2023-05-16T21:44:43.081Z,3.33
2023-05-16T21:47:44.503Z,2.67
2023-05-16T21:50:45.892Z,4.38
2023-05-16T21:53:47.233Z,3.13
2023-05-16T21:56:48.594Z,2.90
2023-05-16T21:59:49.961Z,3.58
2023-05-16T22:02:51.389Z,2.58
2023-05-16T22:05:52.763Z,4.28
2023-05-16T22:08:54.117Z,3.37
2023-05-16T22:11:55.464Z,2.65
2023-05-16T22:14:56.824Z,4.28
2023-05-16T22:17:58.213Z,7.45
2023-05-16T22:20:59.584Z,2.88
2023-05-16T22:24:00.996Z,3.17
2023-05-16T22:27:02.345Z,2.85
2023-05-16T22:30:03.687Z,4.00
2023-05-16T22:33:05.082Z,2.95
2023-05-16T22:36:06.510Z,2.92
2023-05-16T22:39:07.838Z,2.60
2023-05-16T22:42:09.205Z,2.40
2023-05-16T22:45:10.558Z,2.78
2023-05-16T22:48:12.020Z,2.70
2023-05-16T22:51:13.437Z,2.78
2023-05-16T22:54:14.773Z,3.47
2023-05-16T22:57:16.100Z,2.33
2023-05-16T23:00:17.431Z,2.88
2023-05-16T23:03:18.912Z,2.35
2023-05-16T23:06:20.297Z,3.20
2023-05-16T23:09:21.650Z,3.03
2023-05-16T23:12:22.998Z,4.88
2023-05-16T23:15:24.376Z,3.30
2023-05-16T23:18:25.786Z,3.13
2023-05-16T23:21:27.221Z,3.65
2023-05-16T23:24:28.571Z,3.30
2023-05-16T23:27:29.947Z,2.88
2023-05-16T23:30:31.322Z,4.38
2023-05-16T23:33:32.672Z,3.00
2023-05-16T23:36:34.125Z,2.85
2023-05-16T23:39:35.453Z,3.83
2023-05-16T23:42:36.810Z,3.15
2023-05-16T23:45:38.171Z,3.05
2023-05-16T23:48:39.614Z,3.78
2023-05-16T23:51:55.853Z,2.55
2023-05-16T23:54:57.952Z,4.67
2023-05-16T23:57:59.292Z,4.68
